Time;durP1;ratioP1;P1;durP2;ratioP2;P2;SDS_P1;SDS_P2;PMS_P1;PMS_P2;Temp;Humidity;BMP_temperature;BMP_pressure;BME280_temperature;BME280_humidity;BME280_pressure;Samples;Min_cycle;Max_cycle;Signal;HPM_P1;HPM_P2
2024/03/18 00:02:22;;;;;;;13.93;8.05;;;1.30;83.50;;;;;;4916307;29;20050;-79
2024/03/18 00:04:48;;;;;;;24.70;14.57;;;1.30;83.70;;;;;;4916059;29;20103;-78
2024/03/18 00:07:13;;;;;;;24.13;14.45;;;1.30;83.40;;;;;;4916391;29;20040;-79
2024/03/18 00:09:39;;;;;;;15.75;10.25;;;1.30;83.00;;;;;;4917484;29;20111;-79
2024/03/18 00:12:07;;;;;;;6.63;4.68;;;1.30;83.30;;;;;;4916374;29;20469;-78
2024/03/18 00:14:32;;;;;;;8.77;6.10;;;1.30;83.30;;;;;;4928490;29;20032;-78
2024/03/18 00:16:58;;;;;;;10.48;6.50;;;1.30;83.90;;;;;;4917745;29;20028;-78
2024/03/18 00:19:25;;;;;;;10.48;5.03;;;1.30;83.20;;;;;;4917338;29;20028;-78
2024/03/18 00:21:51;;;;;;;9.55;5.25;;;1.30;83.40;;;;;;4917497;29;20051;-78
2024/03/18 00:24:18;;;;;;;9.85;6.18;;;1.20;82.90;;;;;;4916936;29;20107;-78
2024/03/18 00:26:44;;;;;;;9.18;6.07;;;1.20;83.30;;;;;;4916497;29;20156;-79
2024/03/18 00:29:09;;;;;;;10.60;6.45;;;1.20;83.30;;;;;;4915801;29;20103;-78
2024/03/18 00:31:35;;;;;;;7.50;6.18;;;1.20;83.60;;;;;;4917175;29;20032;-79
2024/03/18 00:34:01;;;;;;;7.35;5.93;;;1.20;83.80;;;;;;4917124;29;20023;-79
2024/03/18 00:36:26;;;;;;;11.23;5.85;;;1.20;83.70;;;;;;4915901;29;20028;-78
2024/03/18 00:38:52;;;;;;;8.60;5.70;;;1.20;83.40;;;;;;4917020;29;20032;-79
2024/03/18 00:44:04;;;;;;;7.90;5.80;;;1.20;83.60;;;;;;4917473;29;20051;-79
2024/03/18 00:46:30;;;;;;;8.88;4.60;;;1.20;84.40;;;;;;4915532;29;20024;-78
2024/03/18 00:48:56;;;;;;;6.30;4.43;;;1.30;84.50;;;;;;4915759;29;20087;-79
2024/03/18 00:51:21;;;;;;;4.07;3.38;;;1.30;85.30;;;;;;4916805;29;20029;-79
2024/03/18 00:53:47;;;;;;;3.97;3.63;;;1.10;85.10;;;;;;4917045;29;20030;-79
2024/03/18 00:56:13;;;;;;;5.82;3.15;;;1.00;86.50;;;;;;4914789;29;20087;-80
2024/03/18 00:58:39;;;;;;;6.38;3.45;;;0.90;89.20;;;;;;4915597;29;20087;-80
2024/03/18 01:01:06;;;;;;;5.72;3.83;;;0.80;91.30;;;;;;4916669;29;20536;-80
2024/03/18 01:03:33;;;;;;;4.90;3.92;;;0.70;92.80;;;;;;4915599;29;20059;-79
2024/03/18 01:05:59;;;;;;;4.22;3.40;;;0.70;92.30;;;;;;4916462;29;20040;-78
2024/03/18 01:08:25;;;;;;;5.25;4.22;;;0.70;91.40;;;;;;4913885;29;20020;-78
2024/03/18 01:10:50;;;;;;;6.72;4.03;;;0.60;91.70;;;;;;4928270;29;20095;-79
2024/03/18 01:13:16;;;;;;;6.65;4.40;;;0.60;92.10;;;;;;4929382;29;20024;-80
2024/03/18 01:15:42;;;;;;;7.95;4.68;;;0.60;91.90;;;;;;4921311;29;20460;-80
2024/03/18 01:18:08;;;;;;;5.05;4.30;;;0.60;93.00;;;;;;4919107;29;20024;-80
2024/03/18 01:20:35;;;;;;;6.05;4.45;;;0.50;93.20;;;;;;4916525;29;20156;-80
2024/03/18 01:23:02;;;;;;;6.10;4.40;;;0.50;94.70;;;;;;4915375;29;20031;-80
2024/03/18 01:25:29;;;;;;;4.95;3.72;;;0.40;96.80;;;;;;4915369;29;20056;-80
2024/03/18 01:27:55;;;;;;;4.65;3.88;;;0.40;97.70;;;;;;4927221;29;20024;-80
2024/03/18 01:30:21;;;;;;;5.20;4.35;;;0.40;97.80;;;;;;4914834;29;20030;-79
2024/03/18 01:32:47;;;;;;;5.93;4.25;;;0.40;98.90;;;;;;4916488;29;20107;-79
2024/03/18 01:35:13;;;;;;;5.70;3.95;;;0.30;99.90;;;;;;4915982;29;20522;-80
2024/03/18 01:37:39;;;;;;;6.88;4.68;;;0.30;99.90;;;;;;4915277;29;20031;-79
2024/03/18 01:40:12;;;;;;;6.30;4.45;;;0.20;99.90;;;;;;4914690;29;20408;-81
2024/03/18 01:42:42;;;;;;;5.18;4.38;;;0.20;99.90;;;;;;4916598;29;20119;-80
2024/03/18 01:45:09;;;;;;;6.32;4.40;;;0.20;99.90;;;;;;4924605;29;20075;-80
2024/03/18 01:47:34;;;;;;;4.20;3.42;;;0.30;99.90;;;;;;4914749;29;20027;-80
2024/03/18 01:50:01;;;;;;;5.18;4.30;;;0.20;99.90;;;;;;4916378;29;20478;-81
2024/03/18 01:52:27;;;;;;;4.20;3.80;;;0.10;99.90;;;;;;4916015;29;20056;-80
2024/03/18 01:54:52;;;;;;;5.88;4.10;;;0.10;99.90;;;;;;4916326;29;20094;-81
2024/03/18 01:57:18;;;;;;;3.47;3.08;;;0.10;99.90;;;;;;4914800;29;20120;-81
2024/03/18 01:59:44;;;;;;;4.97;3.25;;;0.10;99.90;;;;;;4915010;29;20052;-79
2024/03/18 02:02:13;;;;;;;5.55;3.10;;;0.00;99.90;;;;;;4914747;29;20016;-81
2024/03/18 02:04:39;;;;;;;4.88;3.30;;;0.00;99.90;;;;;;4914934;29;20070;-81
2024/03/18 02:07:24;;;;;;;3.38;2.80;;;-0.10;99.90;;;;;;4914597;29;20063;-81
2024/03/18 02:09:50;;;;;;;3.22;2.92;;;-0.10;99.90;;;;;;4914886;29;20034;-80
2024/03/18 02:12:17;;;;;;;5.45;2.83;;;-0.30;99.90;;;;;;4902620;29;20024;-80
2024/03/18 02:14:51;;;;;;;4.65;2.80;;;-0.30;99.90;;;;;;4914603;29;20036;-80
2024/03/18 02:17:18;;;;;;;3.78;3.17;;;-0.40;99.90;;;;;;4909308;29;20110;-81
2024/03/18 02:19:44;;;;;;;2.50;2.30;;;-0.50;99.90;;;;;;4921564;29;20111;-80
2024/03/18 02:22:10;;;;;;;3.15;2.85;;;-0.50;99.90;;;;;;4916030;29;20443;-80
2024/03/18 02:24:36;;;;;;;4.05;2.80;;;-0.50;99.90;;;;;;4919002;29;20036;-80
2024/03/18 02:27:12;;;;;;;3.60;3.30;;;-0.50;99.90;;;;;;4918580;29;20036;-81
2024/03/18 02:29:38;;;;;;;3.55;3.25;;;-0.40;99.90;;;;;;4919375;29;20492;-81
2024/03/18 02:32:05;;;;;;;4.13;2.85;;;-0.40;99.90;;;;;;4918339;29;20024;-79
2024/03/18 02:34:31;;;;;;;6.05;3.53;;;-0.50;99.90;;;;;;4919146;29;20039;-80
2024/03/18 02:36:57;;;;;;;3.40;3.10;;;-0.60;99.90;;;;;;4918201;29;20027;-79
2024/03/18 02:39:24;;;;;;;4.25;3.35;;;-0.60;99.90;;;;;;4919299;29;20401;-80
2024/03/18 02:41:54;;;;;;;3.20;3.00;;;-0.60;99.90;;;;;;4918080;29;20024;-80
2024/03/18 02:44:23;;;;;;;4.40;4.00;;;-0.60;99.90;;;;;;4917606;29;20039;-81
2024/03/18 02:46:48;;;;;;;4.03;3.65;;;-0.50;99.90;;;;;;4917837;29;20028;-81
2024/03/18 02:49:15;;;;;;;8.43;3.83;;;-0.50;99.90;;;;;;4917810;29;20032;-81
2024/03/18 02:51:41;;;;;;;5.53;3.83;;;-0.50;99.90;;;;;;4917948;29;20508;-81
2024/03/18 02:54:07;;;;;;;4.15;3.75;;;-0.50;99.90;;;;;;4918824;29;20024;-80
2024/03/18 02:56:33;;;;;;;4.95;4.25;;;-0.60;99.90;;;;;;4917977;29;20366;-80
2024/03/18 02:58:58;;;;;;;5.15;4.38;;;-0.50;99.90;;;;;;4918654;29;20505;-80
2024/03/18 03:01:25;;;;;;;5.40;4.22;;;-0.50;99.90;;;;;;4917665;29;20389;-81
2024/03/18 03:04:00;;;;;;;8.98;4.88;;;-0.50;99.90;;;;;;4917537;29;20028;-81
2024/03/18 03:06:25;;;;;;;5.93;4.75;;;-0.50;99.90;;;;;;4917679;29;20051;-81
2024/03/18 03:08:51;;;;;;;5.78;4.47;;;-0.50;99.90;;;;;;4918725;29;20025;-80
2024/03/18 03:11:17;;;;;;;6.72;4.15;;;-0.50;99.90;;;;;;4917443;29;20028;-81
2024/03/18 03:13:42;;;;;;;6.65;4.97;;;-0.40;99.90;;;;;;4917346;29;20028;-81
2024/03/18 03:16:12;;;;;;;8.75;5.95;;;-0.30;99.90;;;;;;4917095;29;20051;-81
2024/03/18 03:18:38;;;;;;;6.85;4.95;;;-0.40;99.90;;;;;;4928811;29;20111;-81
2024/03/18 03:21:06;;;;;;;7.35;5.82;;;-0.50;99.90;;;;;;4917377;29;20058;-81
2024/03/18 03:23:34;;;;;;;7.47;5.07;;;-0.50;99.90;;;;;;4916968;29;20094;-81
2024/03/18 03:25:59;;;;;;;7.18;5.60;;;-0.50;99.90;;;;;;4917180;29;20028;-81
2024/03/18 03:28:26;;;;;;;7.45;5.30;;;-0.50;99.90;;;;;;4917190;29;20365;-81
2024/03/18 03:31:05;;;;;;;8.50;6.03;;;-0.60;99.90;;;;;;4917269;29;20066;-81
2024/03/18 03:33:33;;;;;;;10.27;7.28;;;-0.60;99.90;;;;;;4901608;29;20024;-80
2024/03/18 03:35:59;;;;;;;9.95;7.40;;;-0.60;99.90;;;;;;4912624;29;20036;-80
2024/03/18 03:38:25;;;;;;;11.30;7.82;;;-0.60;99.90;;;;;;4918320;29;20071;-80
2024/03/18 03:40:52;;;;;;;11.50;7.00;;;-0.70;99.90;;;;;;4917951;29;20478;-79
2024/03/18 03:43:18;;;;;;;11.93;7.80;;;-0.80;99.90;;;;;;4916970;29;20051;-80
2024/03/18 03:45:56;;;;;;;12.63;7.65;;;-0.80;99.90;;;;;;4916268;29;20036;-79
2024/03/18 03:48:26;;;;;;;13.65;8.55;;;-0.80;99.90;;;;;;4917038;29;20288;-79
2024/03/18 03:50:53;;;;;;;15.75;8.70;;;-0.80;99.90;;;;;;4916503;29;20047;-79
2024/03/18 03:53:20;;;;;;;12.82;7.35;;;-0.70;99.90;;;;;;4916873;29;20054;-79
2024/03/18 03:55:46;;;;;;;12.82;9.25;;;-0.80;99.90;;;;;;4916445;29;20063;-79
2024/03/18 03:58:12;;;;;;;15.93;8.50;;;-0.80;99.90;;;;;;4918001;29;20151;-79
2024/03/18 04:00:43;;;;;;;11.70;7.97;;;-0.80;99.90;;;;;;4916189;29;20127;-79
2024/03/18 04:03:09;;;;;;;13.15;8.48;;;-0.80;99.90;;;;;;4916654;29;20028;-78
2024/03/18 04:05:36;;;;;;;12.80;8.68;;;-0.80;99.90;;;;;;4917538;29;20060;-80
2024/03/18 04:08:02;;;;;;;14.23;9.05;;;-0.70;99.90;;;;;;4916563;29;20476;-80
2024/03/18 04:10:28;;;;;;;15.02;8.80;;;-0.70;99.90;;;;;;4917561;29;20031;-80
2024/03/18 04:12:54;;;;;;;17.08;8.75;;;-0.70;99.90;;;;;;4916530;29;20115;-80
2024/03/18 04:15:20;;;;;;;12.25;7.47;;;-0.60;99.90;;;;;;4915892;29;20520;-80
2024/03/18 04:17:47;;;;;;;13.10;7.63;;;-0.70;99.90;;;;;;4926869;29;20481;-80
2024/03/18 04:20:19;;;;;;;10.52;7.45;;;-0.70;99.90;;;;;;4919287;29;20023;-80
2024/03/18 04:22:50;;;;;;;12.93;8.07;;;-0.70;99.90;;;;;;4916288;29;20031;-80
2024/03/18 04:25:17;;;;;;;10.48;7.53;;;-0.70;99.90;;;;;;4931183;29;20020;-81
2024/03/18 04:27:43;;;;;;;11.52;8.43;;;-0.80;99.90;;;;;;4917390;29;20024;-82
2024/03/18 04:30:29;;;;;;;9.85;7.53;;;-0.70;99.90;;;;;;4916784;29;20052;-81
2024/03/18 04:32:55;;;;;;;10.77;7.68;;;-0.70;99.90;;;;;;4915930;29;20024;-81
2024/03/18 04:35:20;;;;;;;12.50;7.32;;;-0.80;99.90;;;;;;4917235;29;20107;-81
2024/03/18 04:37:46;;;;;;;11.80;6.45;;;-0.80;99.90;;;;;;4915867;29;20036;-81
2024/03/18 04:40:16;;;;;;;10.50;6.85;;;-0.80;99.90;;;;;;4917181;29;20478;-81
2024/03/18 04:42:42;;;;;;;11.50;7.78;;;-0.80;99.90;;;;;;4914339;29;20034;-80
2024/03/18 04:45:10;;;;;;;12.35;8.40;;;-0.80;99.90;;;;;;4915298;29;20032;-80
2024/03/18 04:47:39;;;;;;;11.57;7.28;;;-0.80;99.90;;;;;;4916497;29;20060;-80
2024/03/18 04:50:11;;;;;;;12.73;7.78;;;-0.80;99.90;;;;;;4915710;29;20416;-80
2024/03/18 04:52:37;;;;;;;15.63;9.50;;;-0.90;99.90;;;;;;4915612;29;20059;-80
2024/03/18 04:55:04;;;;;;;12.65;7.95;;;-0.90;99.90;;;;;;4915891;29;20047;-81
2024/03/18 04:57:29;;;;;;;10.45;7.93;;;-0.90;99.90;;;;;;4916585;29;20052;-81
2024/03/18 04:59:56;;;;;;;14.68;8.45;;;-0.90;99.90;;;;;;4915630;29;20028;-82
2024/03/18 05:02:24;;;;;;;10.85;7.68;;;-0.90;99.90;;;;;;4916722;29;20058;-81
2024/03/18 05:04:51;;;;;;;12.40;7.35;;;-1.00;99.90;;;;;;4916512;29;20056;-81
2024/03/18 05:07:17;;;;;;;11.52;7.20;;;-1.10;99.90;;;;;;4916550;29;20541;-81
2024/03/18 05:09:46;;;;;;;11.68;7.18;;;-1.00;99.90;;;;;;4916789;29;20116;-81
2024/03/18 05:12:12;;;;;;;12.00;7.53;;;-1.00;99.90;;;;;;4916217;29;20024;-80
2024/03/18 05:14:38;;;;;;;11.70;7.55;;;-1.00;99.90;;;;;;4915051;29;20040;-80
2024/03/18 05:17:04;;;;;;;11.18;7.35;;;-1.00;99.90;;;;;;4919756;29;20015;-79
2024/03/18 05:19:30;;;;;;;12.23;8.10;;;-1.00;99.90;;;;;;4924297;29;20036;-80
2024/03/18 05:21:56;;;;;;;14.38;7.38;;;-1.10;99.90;;;;;;4916090;29;20024;-81
2024/03/18 05:24:21;;;;;;;11.30;6.85;;;-1.10;99.90;;;;;;4915480;29;20028;-82
2024/03/18 05:26:47;;;;;;;7.97;5.85;;;-1.10;99.90;;;;;;4916464;29;20466;-81
2024/03/18 05:29:13;;;;;;;8.05;5.85;;;-1.10;99.90;;;;;;4915401;29;20039;-82
2024/03/18 05:31:39;;;;;;;8.80;6.82;;;-1.10;99.90;;;;;;4914809;29;20389;-82
2024/03/18 05:34:06;;;;;;;9.18;5.80;;;-1.10;99.90;;;;;;4911978;29;20028;-81
2024/03/18 05:36:32;;;;;;;8.10;6.50;;;-1.20;99.90;;;;;;4914922;29;20036;-81
2024/03/18 05:38:58;;;;;;;8.32;5.13;;;-1.30;99.90;;;;;;4915055;29;20024;-81
2024/03/18 05:41:24;;;;;;;9.13;4.97;;;-1.30;99.90;;;;;;4914846;29;20072;-82
2024/03/18 05:43:50;;;;;;;6.45;4.70;;;-1.30;99.90;;;;;;4914816;29;20049;-81
2024/03/18 05:46:17;;;;;;;9.18;5.45;;;-1.20;99.90;;;;;;4914722;29;20016;-82
2024/03/18 05:48:43;;;;;;;6.50;4.53;;;-1.30;99.90;;;;;;4914532;29;20028;-82
2024/03/18 05:51:09;;;;;;;6.65;4.43;;;-1.20;99.90;;;;;;4914484;29;20034;-83
2024/03/18 05:53:35;;;;;;;6.95;3.92;;;-1.20;99.90;;;;;;4922461;29;20375;-83
2024/03/18 05:56:00;;;;;;;5.93;3.97;;;-1.10;99.90;;;;;;4915809;29;20042;-84
2024/03/18 05:58:26;;;;;;;13.77;5.35;;;-1.00;99.90;;;;;;4919649;29;20028;-82
2024/03/18 06:00:52;;;;;;;6.03;3.67;;;-1.00;99.90;;;;;;4919588;29;20036;-81
2024/03/18 06:03:17;;;;;;;5.97;3.95;;;-1.00;99.90;;;;;;4914755;29;20076;-81
2024/03/18 06:05:43;;;;;;;5.25;3.92;;;-1.00;99.90;;;;;;4917603;29;20057;-80
2024/03/18 06:08:08;;;;;;;6.70;3.78;;;-0.90;99.90;;;;;;4914226;29;20025;-84
2024/03/18 06:10:34;;;;;;;5.93;3.65;;;-0.80;99.90;;;;;;4918939;29;20044;-81
2024/03/18 06:13:00;;;;;;;4.93;4.45;;;-0.80;99.90;;;;;;4919384;29;20043;-83
2024/03/18 06:15:25;;;;;;;7.80;3.67;;;-0.70;99.90;;;;;;4919222;29;20103;-82
2024/03/18 06:17:51;;;;;;;5.95;4.32;;;-0.70;99.90;;;;;;4920687;29;20036;-86
2024/03/18 06:20:17;;;;;;;8.32;4.85;;;-0.80;99.90;;;;;;4922221;29;20371;-84
2024/03/18 06:22:46;;;;;;;7.03;4.50;;;-0.90;99.90;;;;;;4910605;29;20028;-86
2024/03/18 06:27:55;;;;;;;8.68;5.25;;;-0.80;99.90;;;;;;4914251;29;20038;-82
2024/03/18 06:30:21;;;;;;;9.68;5.72;;;-0.80;99.90;;;;;;4918961;29;20119;-84
2024/03/18 06:32:47;;;;;;;6.50;5.25;;;-0.80;99.90;;;;;;4917830;29;20027;-85
2024/03/18 06:35:12;;;;;;;5.13;4.18;;;-0.80;99.90;;;;;;4916488;29;20060;-86
2024/03/18 06:37:39;;;;;;;7.53;5.65;;;-0.80;99.90;;;;;;4918218;29;20095;-82
2024/03/18 06:40:08;;;;;;;10.07;5.30;;;-0.80;99.90;;;;;;4912932;29;20541;-82
2024/03/18 06:42:34;;;;;;;7.10;4.68;;;-0.80;99.90;;;;;;4914148;29;20592;-80
2024/03/18 06:45:00;;;;;;;8.70;5.05;;;-0.70;99.90;;;;;;4916433;29;20032;-81
2024/03/18 06:47:26;;;;;;;65.60;27.33;;;-0.70;99.90;;;;;;4912139;29;20111;-79
2024/03/18 06:49:52;;;;;;;9.15;5.32;;;-0.70;99.90;;;;;;4931993;29;20032;-80
2024/03/18 06:52:18;;;;;;;22.27;10.15;;;-0.70;98.80;;;;;;4919788;29;20102;-80
2024/03/18 06:54:44;;;;;;;13.45;6.50;;;-0.60;99.80;;;;;;4917917;29;20116;-80
2024/03/18 06:57:10;;;;;;;115.55;39.67;;;-0.50;99.90;;;;;;4918877;29;20071;-82
2024/03/18 06:59:36;;;;;;;14.70;6.65;;;-0.50;96.00;;;;;;4917635;29;20020;-81
2024/03/18 07:02:02;;;;;;;12.65;6.05;;;-0.50;93.50;;;;;;4916652;29;20059;-81
2024/03/18 07:04:28;;;;;;;8.43;4.40;;;-0.50;92.20;;;;;;4917713;29;20055;-82
2024/03/18 07:06:54;;;;;;;4.50;4.10;;;-0.70;90.30;;;;;;4916594;29;20486;-83
2024/03/18 07:09:20;;;;;;;5.47;4.40;;;-0.60;91.20;;;;;;4915923;29;20111;-82
2024/03/18 07:11:46;;;;;;;5.53;4.47;;;-0.60;88.20;;;;;;4914992;29;20702;-83
2024/03/18 07:14:13;;;;;;;37.50;17.42;;;-0.60;87.00;;;;;;4916903;29;20020;-82
2024/03/18 07:16:39;;;;;;;13.88;8.05;;;-0.60;88.00;;;;;;4917051;29;20035;-83
2024/03/18 07:19:05;;;;;;;8.85;4.50;;;-0.60;88.20;;;;;;4928333;29;20024;-82
2024/03/18 07:21:31;;;;;;;5.90;4.90;;;-0.60;89.90;;;;;;4918366;29;20044;-82
2024/03/18 07:23:58;;;;;;;9.48;6.43;;;-0.70;92.20;;;;;;4922018;29;20031;-82
2024/03/18 07:26:24;;;;;;;14.27;8.15;;;-0.60;91.10;;;;;;4922562;29;20030;-82
2024/03/18 07:28:49;;;;;;;27.13;13.90;;;-0.50;90.80;;;;;;4918359;29;20401;-83
2024/03/18 07:31:15;;;;;;;9.38;4.85;;;-0.50;90.60;;;;;;4918110;29;20102;-82
2024/03/18 07:33:41;;;;;;;6.85;4.30;;;-0.50;88.80;;;;;;4922951;29;20056;-82
2024/03/18 07:36:07;;;;;;;11.40;8.45;;;-0.70;85.90;;;;;;4918106;29;20067;-83
2024/03/18 07:38:32;;;;;;;25.63;16.95;;;-0.60;85.90;;;;;;4918338;29;20478;-82
2024/03/18 07:40:58;;;;;;;17.05;12.25;;;-0.60;87.70;;;;;;4917945;29;20028;-82
2024/03/18 07:43:24;;;;;;;5.18;3.95;;;-0.50;85.10;;;;;;4918270;29;20024;-82
2024/03/18 07:45:50;;;;;;;18.35;10.70;;;-0.40;84.70;;;;;;4916720;29;20363;-82
2024/03/18 07:48:16;;;;;;;3.88;3.40;;;-0.50;81.90;;;;;;4917023;29;20020;-82
2024/03/18 07:50:41;;;;;;;18.73;8.18;;;-0.60;83.20;;;;;;4916543;29;20031;-83
2024/03/18 07:53:07;;;;;;;20.95;11.85;;;-0.50;85.00;;;;;;4916960;29;20046;-83
2024/03/18 07:55:32;;;;;;;41.53;19.60;;;-0.40;84.10;;;;;;4917632;29;20126;-82
2024/03/18 07:57:58;;;;;;;5.38;4.88;;;-0.40;83.40;;;;;;4918089;29;20095;-83
2024/03/18 08:00:24;;;;;;;49.05;20.13;;;-0.60;82.50;;;;;;4915985;29;20035;-83
2024/03/18 08:02:49;;;;;;;6.63;5.68;;;-0.50;82.70;;;;;;4917719;29;20036;-83
2024/03/18 08:05:15;;;;;;;6.93;4.78;;;-0.50;85.10;;;;;;4917365;29;20153;-82
2024/03/18 08:07:41;;;;;;;6.43;5.75;;;-0.50;85.20;;;;;;4916456;29;20500;-83
2024/03/18 08:10:07;;;;;;;8.63;6.00;;;-0.40;86.50;;;;;;4916140;29;20024;-83
2024/03/18 08:12:33;;;;;;;5.90;5.30;;;-0.40;84.70;;;;;;4914906;29;20385;-83
2024/03/18 08:14:58;;;;;;;9.63;6.05;;;-0.40;84.70;;;;;;4916176;29;20043;-83
2024/03/18 08:17:24;;;;;;;9.93;6.85;;;-0.40;84.70;;;;;;4923973;29;20469;-83
2024/03/18 08:19:50;;;;;;;19.65;10.80;;;-0.50;85.10;;;;;;4922311;29;20107;-82
2024/03/18 08:22:18;;;;;;;11.90;7.38;;;-0.30;86.40;;;;;;4917182;29;20103;-82
2024/03/18 08:24:46;;;;;;;8.55;6.80;;;-0.20;86.40;;;;;;4916356;29;20103;-82
2024/03/18 08:27:13;;;;;;;6.70;5.70;;;-0.20;85.90;;;;;;4917430;29;20020;-82
2024/03/18 08:29:39;;;;;;;9.65;6.10;;;-0.20;85.80;;;;;;4915820;29;20504;-83
2024/03/18 08:32:04;;;;;;;8.50;5.57;;;-0.20;84.60;;;;;;4916085;29;20028;-83
2024/03/18 08:34:30;;;;;;;10.10;6.40;;;-0.30;85.00;;;;;;4915726;29;20087;-83
2024/03/18 08:36:56;;;;;;;9.43;5.78;;;-0.40;86.30;;;;;;4916092;29;20111;-83
2024/03/18 08:39:21;;;;;;;7.40;4.97;;;-0.40;87.30;;;;;;4917036;29;20095;-83
2024/03/18 08:41:47;;;;;;;11.32;8.02;;;-0.40;88.30;;;;;;4915925;29;20107;-83
2024/03/18 08:44:13;;;;;;;7.50;5.32;;;-0.40;88.80;;;;;;4915445;29;20032;-83
2024/03/18 08:46:40;;;;;;;9.27;6.07;;;-0.30;88.60;;;;;;4915786;29;20020;-83
2024/03/18 08:49:07;;;;;;;11.15;6.30;;;-0.20;98.00;;;;;;4915528;29;20548;-83
2024/03/18 08:51:33;;;;;;;7.20;5.63;;;-0.30;99.90;;;;;;4916972;29;20020;-83
2024/03/18 08:53:59;;;;;;;8.60;6.45;;;-0.30;98.70;;;;;;4916780;29;20020;-83
2024/03/18 08:56:25;;;;;;;22.33;10.32;;;-0.30;96.60;;;;;;4915771;29;20028;-83
2024/03/18 08:58:50;;;;;;;14.70;8.82;;;-0.10;90.00;;;;;;4916914;29;20103;-83
2024/03/18 09:01:16;;;;;;;28.38;13.45;;;-0.10;85.30;;;;;;4916792;29;20024;-83
2024/03/18 09:03:42;;;;;;;7.45;5.40;;;0.10;84.80;;;;;;4916771;29;20390;-83
2024/03/18 09:06:08;;;;;;;13.45;6.30;;;0.10;82.40;;;;;;4915426;29;20060;-84
2024/03/18 09:08:34;;;;;;;7.28;5.63;;;0.30;82.60;;;;;;4915451;29;20028;-83
2024/03/18 09:10:59;;;;;;;14.90;8.88;;;0.30;80.60;;;;;;4916647;29;20378;-83
2024/03/18 09:13:25;;;;;;;7.03;5.60;;;0.50;80.40;;;;;;4914017;29;20086;-83
2024/03/18 09:15:51;;;;;;;8.10;5.53;;;0.30;77.70;;;;;;4910626;29;20091;-82
2024/03/18 09:18:17;;;;;;;6.00;5.35;;;0.50;78.30;;;;;;4928386;29;20027;-83
2024/03/18 09:20:42;;;;;;;8.00;6.28;;;0.60;79.00;;;;;;4915354;29;20032;-83
2024/03/18 09:23:08;;;;;;;9.10;6.13;;;0.30;82.30;;;;;;4915133;29;20028;-83
2024/03/18 09:25:35;;;;;;;11.25;6.63;;;0.50;83.50;;;;;;4915230;29;20488;-83
2024/03/18 09:28:01;;;;;;;12.13;7.03;;;0.50;84.50;;;;;;4915087;29;20087;-83
2024/03/18 09:30:28;;;;;;;7.30;6.60;;;0.60;83.80;;;;;;4916553;29;20016;-83
2024/03/18 09:32:53;;;;;;;7.32;5.63;;;0.40;85.00;;;;;;4915785;29;20032;-83
2024/03/18 09:35:19;;;;;;;9.93;8.38;;;0.60;83.60;;;;;;4916274;29;20228;-83
2024/03/18 09:37:45;;;;;;;10.95;6.72;;;0.60;83.10;;;;;;4916494;29;20027;-84
2024/03/18 09:40:11;;;;;;;12.68;8.40;;;0.90;82.70;;;;;;4916370;29;20032;-83
2024/03/18 09:42:38;;;;;;;8.50;6.22;;;1.10;81.30;;;;;;4915912;29;20107;-83
2024/03/18 09:45:08;;;;;;;8.68;7.30;;;1.20;77.60;;;;;;4915071;29;20032;-83
2024/03/18 09:47:34;;;;;;;8.18;6.90;;;1.40;77.50;;;;;;4914870;29;20436;-83
2024/03/18 09:50:00;;;;;;;10.35;7.72;;;1.20;75.60;;;;;;4915039;29;20426;-83
2024/03/18 09:52:34;;;;;;;11.70;7.15;;;1.20;76.60;;;;;;4914798;29;20024;-83
2024/03/18 09:55:00;;;;;;;13.13;7.82;;;1.30;77.50;;;;;;4915814;29;20136;-84
2024/03/18 09:57:28;;;;;;;31.35;14.63;;;1.20;76.80;;;;;;4914693;29;20397;-83
2024/03/18 09:59:53;;;;;;;11.65;6.72;;;1.20;77.30;;;;;;4914640;29;20032;-82
2024/03/18 10:02:19;;;;;;;19.92;10.88;;;0.90;77.10;;;;;;4914867;29;20047;-84
2024/03/18 10:04:46;;;;;;;12.77;8.95;;;1.10;79.00;;;;;;4916044;29;20379;-84
2024/03/18 10:07:14;;;;;;;10.02;7.60;;;1.20;77.50;;;;;;4916132;29;20438;-83
2024/03/18 10:09:43;;;;;;;36.75;14.38;;;1.30;77.50;;;;;;4915903;29;20389;-84
2024/03/18 10:12:12;;;;;;;10.45;7.35;;;1.60;76.00;;;;;;4915078;29;20107;-84
2024/03/18 10:14:37;;;;;;;6.55;4.90;;;1.80;75.60;;;;;;4916025;29;20068;-84
2024/03/18 10:17:03;;;;;;;6.45;5.35;;;2.00;73.70;;;;;;4918339;29;20055;-84
2024/03/18 10:19:30;;;;;;;7.85;5.68;;;1.90;70.60;;;;;;4922558;29;20024;-84
2024/03/18 10:21:56;;;;;;;24.17;11.63;;;1.90;71.10;;;;;;4915792;29;20020;-84
2024/03/18 10:24:22;;;;;;;20.92;10.20;;;2.10;71.50;;;;;;4916088;29;20119;-84
2024/03/18 10:26:49;;;;;;;7.35;4.38;;;2.10;71.00;;;;;;4915709;29;20052;-84
2024/03/18 10:29:14;;;;;;;49.60;22.58;;;1.90;68.30;;;;;;4914647;29;20055;-84
2024/03/18 10:31:40;;;;;;;40.25;17.50;;;2.10;68.70;;;;;;4915638;29;20087;-84
2024/03/18 10:34:06;;;;;;;5.85;4.63;;;2.20;69.00;;;;;;4915920;29;20052;-84
2024/03/18 10:36:35;;;;;;;18.13;9.30;;;2.20;67.80;;;;;;4914318;29;20087;-84
2024/03/18 10:39:08;;;;;;;38.78;20.60;;;2.40;68.20;;;;;;4914683;29;20024;-84
2024/03/18 10:41:38;;;;;;;;;;;2.50;69.00;;;;;;4914336;29;20080;-84
2024/03/18 10:44:10;;;;;;;8.43;5.32;;;2.70;69.40;;;;;;4915679;29;20391;-84
2024/03/18 10:46:36;;;;;;;;;;;2.70;67.50;;;;;;4919736;29;20091;-83
2024/03/18 10:49:02;;;;;;;4.32;3.88;;;2.60;67.10;;;;;;4918994;29;19915;-83
2024/03/18 10:51:30;;;;;;;4.03;3.63;;;2.50;66.00;;;;;;4919130;29;20076;-84
2024/03/18 10:53:56;;;;;;;21.92;10.95;;;2.40;66.80;;;;;;4917807;29;20060;-83
2024/03/18 10:56:22;;;;;;;14.82;8.18;;;2.40;67.10;;;;;;4919030;29;20071;-83
2024/03/18 10:58:48;;;;;;;5.82;5.22;;;2.50;68.30;;;;;;4917624;29;20059;-83
2024/03/18 11:01:14;;;;;;;6.90;4.43;;;2.20;66.90;;;;;;4918983;29;20529;-84
2024/03/18 11:03:46;;;;;;;4.68;4.20;;;2.20;67.10;;;;;;4917564;29;20016;-84
2024/03/18 11:06:16;;;;;;;7.40;3.95;;;2.20;66.80;;;;;;4917555;29;20060;-84
2024/03/18 11:08:42;;;;;;;6.55;4.45;;;2.40;67.70;;;;;;4917480;29;20021;-83
2024/03/18 11:11:15;;;;;;;6.93;4.50;;;2.40;67.50;;;;;;4916325;29;20131;-84
2024/03/18 11:13:42;;;;;;;8.85;4.85;;;2.60;67.70;;;;;;4909537;29;20086;-84
2024/03/18 11:16:12;;;;;;;11.15;6.50;;;2.70;67.50;;;;;;4913799;29;20135;-84
2024/03/18 11:18:43;;;;;;;6.10;5.07;;;2.80;68.10;;;;;;4927977;29;20016;-84
2024/03/18 11:21:16;;;;;;;14.13;8.38;;;3.00;68.70;;;;;;4917380;29;20490;-85
2024/03/18 11:23:42;;;;;;;55.08;17.98;;;3.00;67.70;;;;;;4906265;29;20016;-85
2024/03/18 11:26:09;;;;;;;16.20;8.00;;;3.00;67.70;;;;;;4911868;29;20406;-85
2024/03/18 11:28:42;;;;;;;6.45;5.00;;;3.00;66.90;;;;;;4908800;29;20031;-85
2024/03/18 11:31:09;;;;;;;;;;;3.10;67.00;;;;;;4919817;29;20048;-85
2024/03/18 11:33:36;;;;;;;25.90;12.85;;;3.10;66.30;;;;;;4915521;29;19950;-85
2024/03/18 11:36:07;;;;;;;42.08;17.58;;;3.00;65.90;;;;;;4910763;29;20135;-84
2024/03/18 11:38:37;;;;;;;40.30;16.95;;;3.10;67.20;;;;;;4909413;29;20059;-82
2024/03/18 11:41:03;;;;;;;11.98;6.18;;;3.20;67.20;;;;;;4913722;29;20036;-83
2024/03/18 11:43:31;;;;;;;10.40;6.85;;;3.10;66.60;;;;;;4916532;29;20481;-82
2024/03/18 11:45:59;;;;;;;5.85;5.20;;;3.10;66.00;;;;;;4910042;29;20036;-84
2024/03/18 11:48:25;;;;;;;7.60;5.30;;;3.00;65.50;;;;;;4900069;29;20119;-84
2024/03/18 11:50:50;;;;;;;13.73;6.68;;;2.90;66.00;;;;;;4907779;29;20115;-84
2024/03/18 11:53:20;;;;;;;13.65;7.70;;;3.00;66.90;;;;;;4914563;29;20028;-83
2024/03/18 11:55:53;;;;;;;27.25;13.35;;;3.00;67.10;;;;;;4905070;29;20048;-83
2024/03/18 11:58:19;;;;;;;20.25;9.70;;;3.10;66.80;;;;;;4911636;29;20059;-81
2024/03/18 12:00:48;;;;;;;8.85;5.93;;;3.30;67.70;;;;;;4915809;29;20040;-83
2024/03/18 12:03:16;;;;;;;12.63;6.75;;;3.20;65.20;;;;;;4914802;29;20051;-82
2024/03/18 12:05:44;;;;;;;5.07;4.57;;;3.30;65.30;;;;;;4907227;29;20049;-82
2024/03/18 12:08:22;;;;;;;7.63;4.93;;;3.20;63.00;;;;;;4911748;29;20106;-83
2024/03/18 12:10:54;;;;;;;6.15;4.07;;;3.20;63.10;;;;;;4908665;29;20040;-83
2024/03/18 12:13:24;;;;;;;5.30;4.20;;;3.20;62.30;;;;;;4914121;29;20076;-84
2024/03/18 12:15:59;;;;;;;5.45;4.70;;;3.30;62.60;;;;;;4911955;29;20311;-83
2024/03/18 12:18:29;;;;;;;16.65;9.02;;;3.60;62.50;;;;;;4911975;29;20500;-83
2024/03/18 12:20:55;;;;;;;47.58;23.88;;;3.50;63.90;;;;;;4914864;29;20098;-84
2024/03/18 12:29:00;;;;;;;8.55;5.45;;;3.50;64.30;;;;;;4921884;29;20047;-86
2024/03/18 12:31:30;;;;;;;10.70;6.18;;;3.50;64.60;;;;;;4918126;29;20036;-85
2024/03/18 12:33:59;;;;;;;7.50;5.97;;;3.50;64.70;;;;;;4911135;29;20468;-84
2024/03/18 12:36:24;;;;;;;7.15;5.65;;;3.00;68.70;;;;;;4911441;29;20090;-86
2024/03/18 12:38:51;;;;;;;7.68;5.72;;;3.00;71.60;;;;;;4914285;29;20472;-86
2024/03/18 12:41:18;;;;;;;7.97;6.28;;;2.80;73.00;;;;;;4912829;29;20038;-86
2024/03/18 12:43:50;;;;;;;7.70;6.28;;;2.80;73.60;;;;;;4910783;29;20036;-86
2024/03/18 12:46:17;;;;;;;14.10;6.93;;;3.00;73.80;;;;;;4913166;29;20043;-86
2024/03/18 12:48:44;;;;;;;10.25;5.90;;;3.10;73.70;;;;;;4910183;29;21235;-87
2024/03/18 12:51:11;;;;;;;9.32;6.20;;;3.30;73.40;;;;;;4910832;29;20067;-85
2024/03/18 12:53:37;;;;;;;8.20;5.95;;;3.60;72.70;;;;;;4906901;29;20100;-84
2024/03/18 12:56:04;;;;;;;7.60;6.40;;;3.60;71.20;;;;;;4910486;29;20123;-83
2024/03/18 12:58:31;;;;;;;10.43;7.25;;;3.60;69.40;;;;;;4913253;29;20055;-84